Home > Products > Valid Products > TAF

000
FTUS42 KMFL 220003 AAA
TAFMIA
TAF AMD
KMIA 220003Z 2200/2224 VRB03KT P6SM BKN100 OVC250
     FM221300 VRB05KT P6SM SCT030 BKN250=



000
FTUS42 KMFL 212358 AAA
TAFFLL
TAF AMD
KFLL 212358Z 2200/2224 29003KT P6SM BKN100 OVC250
     FM220500 00000KT P6SM OVC250
     FM221300 VRB05KT P6SM SCT030 BKN250=



000
FTUS42 KMFL 212352 AAA
TAFPBI
TAF AMD
KPBI 212352Z 2200/2224 07006KT P6SM BKN070 OVC250
     FM220400 VRB03KT P6SM OVC250
     FM221400 30006KT P6SM SCT030 BKN250=



000
FTUS42 KMFL 212341
TAFAPF
TAF
KAPF 212341Z 2200/2224 10004KT P6SM SCT050 OVC250
     FM220300 VRB02KT P6SM OVC250
     FM221400 07004KT P6SM BKN250=



000
FTUS42 KMFL 212341
TAFFLL
TAF
KFLL 212341Z 2200/2224 36005KT P6SM SCT120 OVC250
     FM221300 28008KT P6SM VCTS SCT030CB BKN080=



000
FTUS42 KMFL 212341
TAFMIA
TAF
KMIA 212341Z 2200/2224 19005KT P6SM SCT030 BKN070
     FM221300 28008KT P6SM VCTS SCT030CB BKN080=



000
FTUS42 KMFL 212341
TAFPBI
TAF
KPBI 212341Z 2200/2224 07006KT P6SM BKN070 OVC100
     FM221300 28008KT P6SM VCTS SCT030CB BKN080=



000
FTUS42 KMFL 212259 AAB
TAFAPF
TAF AMD
KAPF 212259Z 2123/2218 10004KT P6SM SCT050
     FM220000 VRB02KT P6SM VCSH SCT030 BKN080=



000
FTUS42 KMFL 212259 AAB
TAFAPF
TAF AMD
KAPF 212259Z 2123/2218 10004KT P6SM SCT050
     FM220000 VRB02KT P6SM VCSH SCT030 BKN080=



000
FTUS42 KMFL 212259 AAC
TAFFLL
TAF AMD
KFLL 212259Z 2123/2218 36005KT P6SM SCT120 OVC250
     FM221300 28008KT P6SM VCTS SCT030CB BKN080=



000
FTUS42 KMFL 212259 AAC
TAFFLL
TAF AMD
KFLL 212259Z 2123/2218 36005KT P6SM SCT120 OVC250
     FM221300 28008KT P6SM VCTS SCT030CB BKN080=



000
FTUS42 KMFL 212256 AAD
TAFPBI
TAF AMD
KPBI 212256Z 2123/2218 07006KT P6SM FEW025 BKN070 OVC100
     FM221300 28008KT P6SM VCTS SCT030CB BKN080=



000
FTUS42 KMFL 212256 AAD
TAFPBI
TAF AMD
KPBI 212256Z 2123/2218 07006KT P6SM FEW025 BKN070 OVC100
     FM221300 28008KT P6SM VCTS SCT030CB BKN080=



000
FTUS42 KMFL 212103 AAB
TAFFLL
TAF AMD
KFLL 212103Z 2121/2218 19007KT P6SM VCTS SCT030CB BKN060
     FM220000 VRB03KT P6SM VCSH SCT025 BKN080
     FM221300 28008KT P6SM VCTS SCT030CB BKN080=



000
FTUS42 KMFL 212103 AAC
TAFPBI
TAF AMD
KPBI 212103Z 2121/2218 VRB05KT 3SM TSRA SCT010 BKN020CB OVC030
      TEMPO 2121/2123 1SM +TSRA SCT005CB BKN015 OVC020
     FM220000 13009KT P6SM VCTS SCT025CB BKN080
     FM221300 28008KT P6SM VCTS SCT030CB BKN080=



000
FTUS42 KMFL 212103 AAA
TAFAPF
TAF AMD
KAPF 212103Z 2121/2218 21010KT P6SM VCTS SCT025CB BKN070
     FM220000 VRB02KT P6SM VCSH SCT030 BKN080=



000
FTUS42 KMFL 212103 AAA
TAFMIA
TAF AMD
KMIA 212103Z 2121/2218 19005KT P6SM VCTS SCT030CB BKN070
     FM220000 VRB03KT P6SM VCSH SCT025 BKN080
     FM221300 28008KT P6SM VCTS SCT030CB BKN080=



000
FTUS42 KMFL 211959 AAB
TAFPBI
TAF AMD
KPBI 211959Z 2120/2218 VRB05KT 1/4SM +TSRA SCT008 BKN023CB OVC035
     FM212030 VRB05KT 5SM +TSRA SCT008 BKN023CB OVC035
     FM220000 13009KT P6SM VCTS SCT025CB BKN080
     FM221300 28008KT P6SM VCTS SCT030CB BKN080=



000
FTUS42 KMFL 211959 AAB
TAFPBI
TAF AMD
KPBI 211959Z 2120/2218 VRB05KT 1/4SM +TSRA SCT008 BKN023CB OVC035
     FM212030 VRB05KT 5SM +TSRA SCT008 BKN023CB OVC035
     FM220000 13009KT P6SM VCTS SCT025CB BKN080
     FM221300 28008KT P6SM VCTS SCT030CB BKN080=



000
FTUS42 KMFL 211914 AAA
TAFPBI
TAF AMD
KPBI 211914Z 2119/2218 08014KT 4SM TSRA BR VCTS SCT006 BKN020CB
      OVC026
     FM220000 13009KT P6SM VCTS SCT025CB BKN080
     FM221300 28008KT P6SM VCTS SCT030CB BKN080=



000
FTUS42 KMFL 211906 AAA
TAFFLL
TAF AMD
KFLL 211906Z 2119/2218 20010G20KT 4SM TSRA BKN020CB OVC050
     FM211930 19007KT P6SM VCTS SCT030CB BKN060
     FM220000 VRB03KT P6SM VCSH SCT025 BKN080
     FM221300 28008KT P6SM VCTS SCT030CB BKN080=



000
FTUS42 KMFL 211752
TAFPBI
TAF
KPBI 211752Z 2118/2218 17008KT P6SM VCTS SCT030CB OVC070
      TEMPO 2118/2120 VRB15G25KT 1SM +TSRA BR SCT005 BKN015 OVC020CB
     FM220000 VRB03KT P6SM VCSH SCT025 BKN080
     FM221300 28008KT P6SM VCTS SCT030CB BKN080=



000
FTUS42 KMFL 211752
TAFMIA
TAF
KMIA 211752Z 2118/2218 19005KT P6SM VCTS SCT030CB BKN070
     FM220000 VRB03KT P6SM VCSH SCT025 BKN080
     FM221300 28008KT P6SM VCTS SCT030CB BKN080=



000
FTUS42 KMFL 211752
TAFAPF
TAF
KAPF 211752Z 2118/2218 21010KT P6SM VCTS SCT025CB BKN070
     FM220000 VRB02KT P6SM VCSH SCT030 BKN080=



000
FTUS42 KMFL 211752
TAFFLL
TAF
KFLL 211752Z 2118/2218 17004KT P6SM VCTS SCT030CB BKN070
     FM220000 VRB03KT P6SM VCSH SCT025 BKN080
     FM221300 28008KT P6SM VCTS SCT030CB BKN080=



000
FTUS42 KMFL 211504 AAA
TAFFLL
TAF AMD
KFLL 211504Z 2115/2212 17008KT P6SM VCSH SCT030 BKN070
     FM211700 16006KT P6SM VCTS SCT030CB BKN050
     FM220000 VRB03KT P6SM VCSH SCT025 BKN080=



000
FTUS42 KMFL 211504 AAA
TAFPBI
TAF AMD
KPBI 211504Z 2115/2212 17006KT P6SM VCSH SCT030 BKN060
     FM211700 19006KT P6SM VCTS SCT025CB BKN050
     FM220000 VRB02KT P6SM VCSH SCT025 BKN080=



000
FTUS42 KMFL 211504 AAA
TAFMIA
TAF AMD
KMIA 211504Z 2115/2212 19004KT P6SM VCSH SCT030 BKN080
     FM211700 17006KT P6SM VCTS SCT030CB BKN050
     FM220000 VRB02KT P6SM VCSH SCT025 BKN080=



000
FTUS42 KMFL 211504 AAA
TAFMIA
TAF AMD
KMIA 211504Z 2115/2212 19004KT P6SM VCSH SCT030 BKN080
     FM211700 17006KT P6SM VCTS SCT030CB BKN050
     FM220000 VRB02KT P6SM VCSH SCT025 BKN080=



000
FTUS42 KMFL 211504 AAA
TAFFLL
TAF AMD
KFLL 211504Z 2115/2212 17008KT P6SM VCSH SCT030 BKN070
     FM211700 16006KT P6SM VCTS SCT030CB BKN050
     FM220000 VRB03KT P6SM VCSH SCT025 BKN080=



000
FTUS42 KMFL 211504 AAA
TAFAPF
TAF AMD
KAPF 211504Z 2115/2212 14006KT P6SM VCSH SCT030 BKN090
     FM211700 25008KT P6SM VCTS SCT025CB BKN060
     FM220000 VRB02KT P6SM VCSH SCT030 BKN080=



000
FTUS42 KMFL 211504 AAA
TAFPBI
TAF AMD
KPBI 211504Z 2115/2212 17006KT P6SM VCSH SCT030 BKN060
     FM211700 19006KT P6SM VCTS SCT025CB BKN050
     FM220000 VRB02KT P6SM VCSH SCT025 BKN080=



000
FTUS42 KMFL 211133
TAFMIA
TAF
KMIA 211133Z 2112/2212 VRB03KT P6SM VCSH SCT025 BKN080
     FM211600 16006KT P6SM VCTS SCT030CB BKN050
     FM220000 VRB02KT P6SM VCSH SCT025 BKN080=



000
FTUS42 KMFL 211133
TAFFLL
TAF
KFLL 211133Z 2112/2212 19003KT P6SM VCSH SCT025 BKN080
     FM211600 16006KT P6SM VCTS SCT030CB BKN050
     FM220000 VRB03KT P6SM VCSH SCT025 BKN080=



000
FTUS42 KMFL 211133
TAFFLL
TAF
KFLL 211133Z 2112/2212 19003KT P6SM VCSH SCT025 BKN080
     FM211600 16006KT P6SM VCTS SCT030CB BKN050
     FM220000 VRB03KT P6SM VCSH SCT025 BKN080=



000
FTUS42 KMFL 211133
TAFPBI
TAF
KPBI 211133Z 2112/2212 VRB03KT P6SM VCTS SCT025CB BKN050
     FM211600 19006KT P6SM VCTS SCT025CB BKN050
     FM220000 VRB02KT P6SM VCSH SCT025 BKN080=



000
FTUS42 KMFL 211133
TAFFLL
TAF
KFLL 211133Z 2112/2212 19003KT P6SM VCSH SCT025 BKN080
     FM211600 16006KT P6SM VCTS SCT030CB BKN050
     FM220000 VRB03KT P6SM VCSH SCT025 BKN080=



000
FTUS42 KMFL 211133
TAFAPF
TAF
KAPF 211133Z 2112/2212 VRB03KT P6SM VCSH FEW025 SCT070
     FM211700 25008KT P6SM VCTS SCT025CB BKN060
     FM220000 VRB02KT P6SM VCSH SCT030 BKN080=



000
FTUS42 KMFL 211133
TAFPBI
TAF
KPBI 211133Z 2112/2212 VRB03KT P6SM VCTS SCT025CB BKN050
     FM211600 19006KT P6SM VCTS SCT025CB BKN050
     FM220000 VRB02KT P6SM VCSH SCT025 BKN080=



000
FTUS42 KMFL 211133
TAFMIA
TAF
KMIA 211133Z 2112/2212 VRB03KT P6SM VCSH SCT025 BKN080
     FM211600 16006KT P6SM VCTS SCT030CB BKN050
     FM220000 VRB02KT P6SM VCSH SCT025 BKN080=



000
FTUS42 KMFL 211133
TAFPBI
TAF
KPBI 211133Z 2112/2212 VRB03KT P6SM VCTS SCT025CB BKN050
     FM211600 19006KT P6SM VCTS SCT025CB BKN050
     FM220000 VRB02KT P6SM VCSH SCT025 BKN080=



000
FTUS42 KMFL 211133
TAFMIA
TAF
KMIA 211133Z 2112/2212 VRB03KT P6SM VCSH SCT025 BKN080
     FM211600 16006KT P6SM VCTS SCT030CB BKN050
     FM220000 VRB02KT P6SM VCSH SCT025 BKN080=



000
FTUS42 KMFL 211133
TAFAPF
TAF
KAPF 211133Z 2112/2212 VRB03KT P6SM VCSH FEW025 SCT070
     FM211700 25008KT P6SM VCTS SCT025CB BKN060
     FM220000 VRB02KT P6SM VCSH SCT030 BKN080=



000
FTUS42 KMFL 211133
TAFMIA
TAF
KMIA 211133Z 2112/2212 VRB03KT P6SM VCSH SCT025 BKN080
     FM211600 16006KT P6SM VCTS SCT030CB BKN050
     FM220000 VRB02KT P6SM VCSH SCT025 BKN080=



000
FTUS42 KMFL 211133
TAFFLL
TAF
KFLL 211133Z 2112/2212 19003KT P6SM VCSH SCT025 BKN080
     FM211600 16006KT P6SM VCTS SCT030CB BKN050
     FM220000 VRB03KT P6SM VCSH SCT025 BKN080=



000
FTUS42 KMFL 211133
TAFAPF
TAF
KAPF 211133Z 2112/2212 VRB03KT P6SM VCSH FEW025 SCT070
     FM211700 25008KT P6SM VCTS SCT025CB BKN060
     FM220000 VRB02KT P6SM VCSH SCT030 BKN080=



000
FTUS42 KMFL 211133
TAFPBI
TAF
KPBI 211133Z 2112/2212 VRB03KT P6SM VCTS SCT025CB BKN050
     FM211600 19006KT P6SM VCTS SCT025CB BKN050
     FM220000 VRB02KT P6SM VCSH SCT025 BKN080=



000
FTUS42 KMFL 211133
TAFAPF
TAF
KAPF 211133Z 2112/2212 VRB03KT P6SM VCSH FEW025 SCT070
     FM211700 25008KT P6SM VCTS SCT025CB BKN060
     FM220000 VRB02KT P6SM VCSH SCT030 BKN080=



000
FTUS42 KMFL 210855 AAA
TAFPBI
TAF AMD
KPBI 210855Z 2109/2206 VRB03KT P6SM SCT040 BKN250
     FM211400 17006KT P6SM VCSH SCT025 BKN250
     FM211900 18008KT P6SM SHRA SCT025 BKN035 PROB30 2119/2124 TSRA
      BKN035CB
     FM220100 VRB03KT P6SM VCSH SCT025 BKN040=



000
FTUS42 KMFL 210855 AAA
TAFFLL
TAF AMD
KFLL 210855Z 2109/2206 VRB04KT P6SM SCT035 SCT060 BKN100
     FM211400 17006KT P6SM VCSH SCT025 BKN250
     FM211900 19005KT P6SM SHRA SCT025 BKN035 PROB30 2119/2124 TSRA
      BKN035CB
     FM220100 VRB02KT P6SM VCSH SCT025 BKN040=



000
FTUS42 KMFL 210855 AAA
TAFPBI
TAF AMD
KPBI 210855Z 2109/2206 VRB03KT P6SM SCT040 BKN250
     FM211400 17006KT P6SM VCSH SCT025 BKN250
     FM211900 18008KT P6SM SHRA SCT025 BKN035 PROB30 2119/2124 TSRA
      BKN035CB
     FM220100 VRB03KT P6SM VCSH SCT025 BKN040=



000
FTUS42 KMFL 210855 AAA
TAFAPF
TAF AMD
KAPF 210855Z 2109/2206 VRB05KT P6SM VCSH SCT060 BKN100
     FM211500 17005KT P6SM VCSH SCT035 BKN250
     FM211800 25008KT P6SM SHRA SCT025 BKN035 PROB30 2119/2124 TSRA
      BKN035CB
     FM220100 VRB03KT P6SM VCSH SCT025 BKN040=



000
FTUS42 KMFL 210855 AAA
TAFMIA
TAF AMD
KMIA 210855Z 2109/2206 VRB03KT P6SM VCSH SCT050 BKN100
     FM211500 17006KT P6SM VCSH SCT025 BKN250
     FM211900 20006KT P6SM SHRA SCT025 BKN035 PROB30 2119/2124 TSRA
      BKN035CB
     FM220000 VRB03KT P6SM VCSH SCT025 BKN040=



000
FTUS42 KMFL 210855 AAA
TAFAPF
TAF AMD
KAPF 210855Z 2109/2206 VRB05KT P6SM VCSH SCT060 BKN100
     FM211500 17005KT P6SM VCSH SCT035 BKN250
     FM211800 25008KT P6SM SHRA SCT025 BKN035 PROB30 2119/2124 TSRA
      BKN035CB
     FM220100 VRB03KT P6SM VCSH SCT025 BKN040=



000
FTUS42 KMFL 210855 AAA
TAFFLL
TAF AMD
KFLL 210855Z 2109/2206 VRB04KT P6SM SCT035 SCT060 BKN100
     FM211400 17006KT P6SM VCSH SCT025 BKN250
     FM211900 19005KT P6SM SHRA SCT025 BKN035 PROB30 2119/2124 TSRA
      BKN035CB
     FM220100 VRB02KT P6SM VCSH SCT025 BKN040=



000
FTUS42 KMFL 210855 AAA
TAFMIA
TAF AMD
KMIA 210855Z 2109/2206 VRB03KT P6SM VCSH SCT050 BKN100
     FM211500 17006KT P6SM VCSH SCT025 BKN250
     FM211900 20006KT P6SM SHRA SCT025 BKN035 PROB30 2119/2124 TSRA
      BKN035CB
     FM220000 VRB03KT P6SM VCSH SCT025 BKN040=



000
FTUS42 KMFL 210542
TAFAPF
TAF
KAPF 210542Z 2106/2206 12005KT P6SM SCT050
     FM211500 17005KT P6SM VCSH SCT035 BKN250
     FM211800 25008KT P6SM SHRA SCT025 BKN035 PROB30 2119/2124 TSRA
      BKN035CB
     FM220100 VRB03KT P6SM VCSH SCT025 BKN040=



000
FTUS42 KMFL 210542
TAFPBI
TAF
KPBI 210542Z 2106/2206 VRB03KT P6SM BKN050
     FM211400 17006KT P6SM VCSH SCT025 BKN250
     FM211900 18008KT P6SM SHRA SCT025 BKN035 PROB30 2119/2124 TSRA
      BKN035CB
     FM220100 VRB03KT P6SM VCSH SCT025 BKN040=



000
FTUS42 KMFL 210542
TAFFLL
TAF
KFLL 210542Z 2106/2206 VRB03KT P6SM SCT035 SCT060 BKN080
     FM211400 17006KT P6SM VCSH SCT025 BKN250
     FM211900 19005KT P6SM SHRA SCT025 BKN035 PROB30 2119/2124 TSRA
      BKN035CB
     FM220100 VRB02KT P6SM VCSH SCT025 BKN040=



000
FTUS42 KMFL 210542
TAFMIA
TAF
KMIA 210542Z 2106/2206 VRB03KT P6SM VCSH SCT050 BKN090
     FM211500 17006KT P6SM VCSH SCT025 BKN250
     FM211900 20006KT P6SM SHRA SCT025 BKN035 PROB30 2119/2124 TSRA
      BKN035CB
     FM220000 VRB03KT P6SM VCSH SCT025 BKN040=



000
FTUS42 KMFL 210542
TAFMIA
TAF
KMIA 210542Z 2106/2206 VRB03KT P6SM VCSH SCT050 BKN090
     FM211500 17006KT P6SM VCSH SCT025 BKN250
     FM211900 20006KT P6SM SHRA SCT025 BKN035 PROB30 2119/2124 TSRA
      BKN035CB
     FM220000 VRB03KT P6SM VCSH SCT025 BKN040=



000
FTUS42 KMFL 210542
TAFAPF
TAF
KAPF 210542Z 2106/2206 12005KT P6SM SCT050
     FM211500 17005KT P6SM VCSH SCT035 BKN250
     FM211800 25008KT P6SM SHRA SCT025 BKN035 PROB30 2119/2124 TSRA
      BKN035CB
     FM220100 VRB03KT P6SM VCSH SCT025 BKN040=



000
FTUS42 KMFL 210542
TAFPBI
TAF
KPBI 210542Z 2106/2206 VRB03KT P6SM BKN050
     FM211400 17006KT P6SM VCSH SCT025 BKN250
     FM211900 18008KT P6SM SHRA SCT025 BKN035 PROB30 2119/2124 TSRA
      BKN035CB
     FM220100 VRB03KT P6SM VCSH SCT025 BKN040=



000
FTUS42 KMFL 210542
TAFFLL
TAF
KFLL 210542Z 2106/2206 VRB03KT P6SM SCT035 SCT060 BKN080
     FM211400 17006KT P6SM VCSH SCT025 BKN250
     FM211900 19005KT P6SM SHRA SCT025 BKN035 PROB30 2119/2124 TSRA
      BKN035CB
     FM220100 VRB02KT P6SM VCSH SCT025 BKN040=



000
FTUS42 KMFL 210254 AAA
TAFMIA
TAF AMD
KMIA 210254Z 2103/2124 VRB04KT P6SM BKN045 BKN070
     FM210400 VRB03KT P6SM VCSH SCT050
     FM211400 16005KT P6SM VCSH SCT025 BKN250=



000
FTUS42 KMFL 210254 AAA
TAFPBI
TAF AMD
KPBI 210254Z 2103/2124 13006KT P6SM SCT070 SCT250
     FM210600 VRB02KT P6SM FEW030
     FM211400 16005KT P6SM VCSH SCT025 BKN250=



000
FTUS42 KMFL 210254 AAA
TAFAPF
TAF AMD
KAPF 210254Z 2103/2124 12005KT P6SM SCT150
     FM211400 VRB03KT P6SM VCSH SCT035 BKN250=



000
FTUS42 KMFL 210254 AAB
TAFFLL
TAF AMD
KFLL 210254Z 2103/2124 VRB03KT P6SM SCT035 SCT050 BKN070
     FM211400 16006KT P6SM VCSH SCT025 BKN250=



000
FTUS42 KMFL 210254 AAA
TAFMIA
TAF AMD
KMIA 210254Z 2103/2124 VRB04KT P6SM BKN045 BKN070
     FM210400 VRB03KT P6SM VCSH SCT050
     FM211400 16005KT P6SM VCSH SCT025 BKN250=



000
FTUS42 KMFL 210254 AAB
TAFFLL
TAF AMD
KFLL 210254Z 2103/2124 VRB03KT P6SM SCT035 SCT050 BKN070
     FM211400 16006KT P6SM VCSH SCT025 BKN250=



000
FTUS42 KMFL 210254 AAA
TAFMIA
TAF AMD
KMIA 210254Z 2103/2124 VRB04KT P6SM BKN045 BKN070
     FM210400 VRB03KT P6SM VCSH SCT050
     FM211400 16005KT P6SM VCSH SCT025 BKN250=



000
FTUS42 KMFL 210254 AAA
TAFPBI
TAF AMD
KPBI 210254Z 2103/2124 13006KT P6SM SCT070 SCT250
     FM210600 VRB02KT P6SM FEW030
     FM211400 16005KT P6SM VCSH SCT025 BKN250=



000
FTUS42 KMFL 210254 AAA
TAFPBI
TAF AMD
KPBI 210254Z 2103/2124 13006KT P6SM SCT070 SCT250
     FM210600 VRB02KT P6SM FEW030
     FM211400 16005KT P6SM VCSH SCT025 BKN250=



000
FTUS42 KMFL 210254 AAA
TAFAPF
TAF AMD
KAPF 210254Z 2103/2124 12005KT P6SM SCT150
     FM211400 VRB03KT P6SM VCSH SCT035 BKN250=



000
FTUS42 KMFL 210254 AAA
TAFAPF
TAF AMD
KAPF 210254Z 2103/2124 12005KT P6SM SCT150
     FM211400 VRB03KT P6SM VCSH SCT035 BKN250=



000
FTUS42 KMFL 210254 AAB
TAFFLL
TAF AMD
KFLL 210254Z 2103/2124 VRB03KT P6SM SCT035 SCT050 BKN070
     FM211400 16006KT P6SM VCSH SCT025 BKN250=



000
FTUS42 KMFL 210254 AAA
TAFPBI
TAF AMD
KPBI 210254Z 2103/2124 13006KT P6SM SCT070 SCT250
     FM210600 VRB02KT P6SM FEW030
     FM211400 16005KT P6SM VCSH SCT025 BKN250=



000
FTUS42 KMFL 210254 AAA
TAFAPF
TAF AMD
KAPF 210254Z 2103/2124 12005KT P6SM SCT150
     FM211400 VRB03KT P6SM VCSH SCT035 BKN250=



000
FTUS42 KMFL 210254 AAA
TAFMIA
TAF AMD
KMIA 210254Z 2103/2124 VRB04KT P6SM BKN045 BKN070
     FM210400 VRB03KT P6SM VCSH SCT050
     FM211400 16005KT P6SM VCSH SCT025 BKN250=



000
FTUS42 KMFL 210254 AAB
TAFFLL
TAF AMD
KFLL 210254Z 2103/2124 VRB03KT P6SM SCT035 SCT050 BKN070
     FM211400 16006KT P6SM VCSH SCT025 BKN250=



000
FTUS42 KMFL 210142 AAA
TAFFLL
TAF AMD
KFLL 210142Z 2102/2124 00000KT P6SM BKN070 BKN250
     FM210400 13003KT P6SM BKN040
     FM211400 16006KT P6SM VCSH SCT025 BKN250=



000
FTUS42 KMFL 202339
TAFMIA
TAF
KMIA 202339Z 2100/2124 14006KT P6SM SCT030 BKN070
     FM210400 00000KT P6SM VCSH SCT050
     FM211400 16004KT P6SM VCSH SCT025 BKN250=



000
FTUS42 KMFL 202339
TAFAPF
TAF
KAPF 202339Z 2100/2124 12005KT P6SM FEW050 SCT060
     FM211400 11003KT P6SM VCSH FEW030 BKN250=



000
FTUS42 KMFL 202339
TAFFLL
TAF
KFLL 202339Z 2100/2124 10012KT P6SM BKN035 OVC040
     FM210400 13005KT P6SM BKN040
     FM211400 16006KT P6SM VCSH SCT025 BKN250=



000
FTUS42 KMFL 202339
TAFPBI
TAF
KPBI 202339Z 2100/2124 12008KT P6SM FEW040 SCT080 BKN250
     FM210600 VRB02KT P6SM FEW030
     FM211400 16005KT P6SM VCSH SCT025 BKN250=



000
FTUS42 KMFL 202339
TAFMIA
TAF
KMIA 202339Z 2100/2124 14006KT P6SM SCT030 BKN070
     FM210400 00000KT P6SM VCSH SCT050
     FM211400 16004KT P6SM VCSH SCT025 BKN250=



000
FTUS42 KMFL 202339
TAFAPF
TAF
KAPF 202339Z 2100/2124 12005KT P6SM FEW050 SCT060
     FM211400 11003KT P6SM VCSH FEW030 BKN250=



000
FTUS42 KMFL 202339
TAFFLL
TAF
KFLL 202339Z 2100/2124 10012KT P6SM BKN035 OVC040
     FM210400 13005KT P6SM BKN040
     FM211400 16006KT P6SM VCSH SCT025 BKN250=



000
FTUS42 KMFL 202339
TAFPBI
TAF
KPBI 202339Z 2100/2124 12008KT P6SM FEW040 SCT080 BKN250
     FM210600 VRB02KT P6SM FEW030
     FM211400 16005KT P6SM VCSH SCT025 BKN250=



000
FTUS42 KMFL 202013 AAB
TAFMIA
TAF AMD
KMIA 202013Z 2020/2118 10008KT P6SM VCSH BKN035 BKN070
     FM202030 11006KT 4SM -SHRA VCTS BKN030CB OVC050
     FM202200 12004KT P6SM BKN060
     FM210600 00000KT P6SM VCSH FEW030 SCT250
     FM211400 16004KT P6SM VCSH SCT025 BKN250=



000
FTUS42 KMFL 202013 AAB
TAFMIA
TAF AMD
KMIA 202013Z 2020/2118 10008KT P6SM VCSH BKN035 BKN070
     FM202030 11006KT 4SM -SHRA VCTS BKN030CB OVC050
     FM202200 12004KT P6SM BKN060
     FM210600 00000KT P6SM VCSH FEW030 SCT250
     FM211400 16004KT P6SM VCSH SCT025 BKN250=



000
FTUS42 KMFL 201932 AAA
TAFMIA
TAF AMD
KMIA 201932Z 2020/2118 10008KT P6SM VCSH BKN035 BKN070
     FM210000 12004KT P6SM FEW030 SCT250
     FM210600 00000KT P6SM VCSH FEW030 SCT250
     FM211400 16004KT P6SM VCSH SCT025 BKN250=



000
FTUS42 KMFL 201725
TAFFLL
TAF
KFLL 201725Z 2018/2118 10010KT P6SM SCT040 BKN050 BKN250
     FM210000 12004KT P6SM FEW030 SCT250
     FM211400 16006KT P6SM VCSH SCT025 BKN250=



000
FTUS42 KMFL 201725
TAFAPF
TAF
KAPF 201725Z 2018/2118 21008KT P6SM SCT045 SCT250
     FM210000 10004KT P6SM SCT250
     FM211400 11003KT P6SM VCSH FEW030 BKN250=



000
FTUS42 KMFL 201725
TAFFLL
TAF
KFLL 201725Z 2018/2118 10010KT P6SM SCT040 BKN050 BKN250
     FM210000 12004KT P6SM FEW030 SCT250
     FM211400 16006KT P6SM VCSH SCT025 BKN250=



000
FTUS42 KMFL 201725
TAFPBI
TAF
KPBI 201725Z 2018/2118 11010KT P6SM SCT050 SCT250
     FM210000 13004KT P6SM FEW030 SCT250
     FM210600 VRB02KT P6SM FEW030
     FM211400 16005KT P6SM VCSH SCT025 BKN250=



000
FTUS42 KMFL 201725
TAFMIA
TAF
KMIA 201725Z 2018/2118 10008KT P6SM BKN035 BKN070
     FM210000 12004KT P6SM FEW030 SCT250
     FM210600 00000KT P6SM VCSH FEW030 SCT250
     FM211400 16004KT P6SM VCSH SCT025 BKN250=



000
FTUS42 KMFL 201725
TAFAPF
TAF
KAPF 201725Z 2018/2118 21008KT P6SM SCT045 SCT250
     FM210000 10004KT P6SM SCT250
     FM211400 11003KT P6SM VCSH FEW030 BKN250=



000
FTUS42 KMFL 201725
TAFPBI
TAF
KPBI 201725Z 2018/2118 11010KT P6SM SCT050 SCT250
     FM210000 13004KT P6SM FEW030 SCT250
     FM210600 VRB02KT P6SM FEW030
     FM211400 16005KT P6SM VCSH SCT025 BKN250=



000
FTUS42 KMFL 201725
TAFMIA
TAF
KMIA 201725Z 2018/2118 10008KT P6SM BKN035 BKN070
     FM210000 12004KT P6SM FEW030 SCT250
     FM210600 00000KT P6SM VCSH FEW030 SCT250
     FM211400 16004KT P6SM VCSH SCT025 BKN250=



000
FTUS42 KMFL 201522 AAA
TAFFLL
TAF AMD
KFLL 201522Z 2015/2112 09008KT P6SM FEW045 FEW120 SCT250
     FM210000 12004KT P6SM FEW030 SCT250=



000
FTUS42 KMFL 201522 AAA
TAFAPF
TAF AMD
KAPF 201522Z 2015/2112 07008KT P6SM FEW035 SCT250
     FM201800 24010KT P6SM FEW035 SCT250
     FM210000 10004KT P6SM SCT250=



000
FTUS42 KMFL 201522 AAA
TAFMIA
TAF AMD
KMIA 201522Z 2015/2112 10008KT P6SM BKN035 BKN250
     FM210000 12004KT P6SM FEW030 SCT250
     FM210600 00000KT P6SM FEW030 SCT250=



000
FTUS42 KMFL 201522 AAA
TAFAPF
TAF AMD
KAPF 201522Z 2015/2112 07008KT P6SM FEW035 SCT250
     FM201800 24010KT P6SM FEW035 SCT250
     FM210000 10004KT P6SM SCT250=



000
FTUS42 KMFL 201522 AAA
TAFPBI
TAF AMD
KPBI 201522Z 2015/2112 VRB05KT P6SM SCT045 SCT250
     FM201600 12010KT P6SM SCT045 SCT250
     FM210000 13004KT P6SM FEW030 SCT250
     FM210600 VRB02KT P6SM FEW030=



000
FTUS42 KMFL 201522 AAA
TAFFLL
TAF AMD
KFLL 201522Z 2015/2112 09008KT P6SM FEW045 FEW120 SCT250
     FM210000 12004KT P6SM FEW030 SCT250=



000
FTUS42 KMFL 201522 AAA
TAFPBI
TAF AMD
KPBI 201522Z 2015/2112 VRB05KT P6SM SCT045 SCT250
     FM201600 12010KT P6SM SCT045 SCT250
     FM210000 13004KT P6SM FEW030 SCT250
     FM210600 VRB02KT P6SM FEW030=



000
FTUS42 KMFL 201522 AAA
TAFMIA
TAF AMD
KMIA 201522Z 2015/2112 10008KT P6SM BKN035 BKN250
     FM210000 12004KT P6SM FEW030 SCT250
     FM210600 00000KT P6SM FEW030 SCT250=



000
FTUS42 KMFL 201136
TAFFLL
TAF
KFLL 201136Z 2012/2112 VRB03KT P6SM FEW045 FEW250
     FM201400 12010KT P6SM SCT035 SCT250
     FM210000 12004KT P6SM FEW030 SCT250=



000
FTUS42 KMFL 201136
TAFFLL
TAF
KFLL 201136Z 2012/2112 VRB03KT P6SM FEW045 FEW250
     FM201400 12010KT P6SM SCT035 SCT250
     FM210000 12004KT P6SM FEW030 SCT250=



000
FTUS42 KMFL 201136
TAFPBI
TAF
KPBI 201136Z 2012/2112 VRB03KT P6SM SCT040 SCT050
     FM201500 12010KT P6SM SCT035 SCT250
     FM210000 13004KT P6SM FEW030 SCT250
     FM210600 VRB02KT P6SM FEW030=



000
FTUS42 KMFL 201136
TAFMIA
TAF
KMIA 201136Z 2012/2112 VRB03KT P6SM FEW040 FEW250
     FM201500 11010KT P6SM SCT035 SCT250
     FM210000 12004KT P6SM FEW030 SCT250
     FM210600 00000KT P6SM FEW030 SCT250=



000
FTUS42 KMFL 201136
TAFMIA
TAF
KMIA 201136Z 2012/2112 VRB03KT P6SM FEW040 FEW250
     FM201500 11010KT P6SM SCT035 SCT250
     FM210000 12004KT P6SM FEW030 SCT250
     FM210600 00000KT P6SM FEW030 SCT250=



000
FTUS42 KMFL 201136
TAFAPF
TAF
KAPF 201136Z 2012/2112 05004KT P6SM FEW250
     FM201600 16008KT P6SM FEW035 SCT250
     FM201800 24010KT P6SM FEW035 SCT250
     FM210000 10004KT P6SM SCT250=



000
FTUS42 KMFL 201136
TAFPBI
TAF
KPBI 201136Z 2012/2112 VRB03KT P6SM SCT040 SCT050
     FM201500 12010KT P6SM SCT035 SCT250
     FM210000 13004KT P6SM FEW030 SCT250
     FM210600 VRB02KT P6SM FEW030=



000
FTUS42 KMFL 200930 AAA
TAFFLL
TAF AMD
KFLL 200930Z 2010/2106 10005KT P6SM FEW030
     FM201600 12010KT P6SM SCT035 SCT250
     FM210000 12006KT P6SM BKN250=



000
FTUS42 KMFL 200930 AAA
TAFFLL
TAF AMD
KFLL 200930Z 2010/2106 10005KT P6SM FEW030
     FM201600 12010KT P6SM SCT035 SCT250
     FM210000 12006KT P6SM BKN250=



000
FTUS42 KMFL 200930 AAA
TAFMIA
TAF AMD
KMIA 200930Z 2010/2106 VRB03KT P6SM FEW030
     FM201600 11010KT P6SM SCT035 BKN120
     FM210000 12005KT P6SM BKN250=



000
FTUS42 KMFL 200930 AAA
TAFPBI
TAF AMD
KPBI 200930Z 2010/2106 10004KT P6SM FEW030
     FM201600 12010KT P6SM SCT035 SCT250
     FM210000 13006KT P6SM BKN250=



000
FTUS42 KMFL 200930 AAA
TAFPBI
TAF AMD
KPBI 200930Z 2010/2106 10004KT P6SM FEW030
     FM201600 12010KT P6SM SCT035 SCT250
     FM210000 13006KT P6SM BKN250=



000
FTUS42 KMFL 200930 AAA
TAFMIA
TAF AMD
KMIA 200930Z 2010/2106 VRB03KT P6SM FEW030
     FM201600 11010KT P6SM SCT035 BKN120
     FM210000 12005KT P6SM BKN250=



000
FTUS42 KMFL 200930 AAA
TAFAPF
TAF AMD
KAPF 200930Z 2010/2106 07004KT P6SM FEW030
     FM201600 16008KT P6SM SCT035 SCT250
     FM201800 24010KT P6SM SCT035 SCT250
     FM210000 10004KT P6SM BKN250=



000
FTUS42 KMFL 200930 AAA
TAFAPF
TAF AMD
KAPF 200930Z 2010/2106 07004KT P6SM FEW030
     FM201600 16008KT P6SM SCT035 SCT250
     FM201800 24010KT P6SM SCT035 SCT250
     FM210000 10004KT P6SM BKN250=



000
FTUS42 KMFL 200525
TAFAPF
TAF
KAPF 200525Z 2006/2106 07004KT P6SM FEW030
     FM201600 16008KT P6SM SCT035 SCT250
     FM201800 24010KT P6SM SCT035 SCT250
     FM210000 10004KT P6SM BKN250=



000
FTUS42 KMFL 200525
TAFPBI
TAF
KPBI 200525Z 2006/2106 10004KT P6SM FEW030
     FM201600 12010KT P6SM SCT035 SCT250
     FM210000 13006KT P6SM BKN250=



000
FTUS42 KMFL 200525
TAFMIA
TAF
KMIA 200525Z 2006/2106 VRB03KT P6SM FEW030
     FM201600 11010KT P6SM SCT035 BKN120
     FM210000 12005KT P6SM BKN250=



000
FTUS42 KMFL 200525
TAFFLL
TAF
KFLL 200525Z 2006/2106 10005KT P6SM FEW030
     FM201600 12010KT P6SM SCT035 SCT250
     FM210000 12006KT P6SM BKN250=



000
FTUS42 KMFL 200525
TAFPBI
TAF
KPBI 200525Z 2006/2106 10004KT P6SM FEW030
     FM201600 12010KT P6SM SCT035 SCT250
     FM210000 13006KT P6SM BKN250=



000
FTUS42 KMFL 200525
TAFAPF
TAF
KAPF 200525Z 2006/2106 07004KT P6SM FEW030
     FM201600 16008KT P6SM SCT035 SCT250
     FM201800 24010KT P6SM SCT035 SCT250
     FM210000 10004KT P6SM BKN250=



000
FTUS42 KMFL 200525
TAFFLL
TAF
KFLL 200525Z 2006/2106 10005KT P6SM FEW030
     FM201600 12010KT P6SM SCT035 SCT250
     FM210000 12006KT P6SM BKN250=



000
FTUS42 KMFL 200525
TAFAPF
TAF
KAPF 200525Z 2006/2106 07004KT P6SM FEW030
     FM201600 16008KT P6SM SCT035 SCT250
     FM201800 24010KT P6SM SCT035 SCT250
     FM210000 10004KT P6SM BKN250=



000
FTUS42 KMFL 200525
TAFMIA
TAF
KMIA 200525Z 2006/2106 VRB03KT P6SM FEW030
     FM201600 11010KT P6SM SCT035 BKN120
     FM210000 12005KT P6SM BKN250=



000
FTUS42 KMFL 200525
TAFFLL
TAF
KFLL 200525Z 2006/2106 10005KT P6SM FEW030
     FM201600 12010KT P6SM SCT035 SCT250
     FM210000 12006KT P6SM BKN250=



000
FTUS42 KMFL 200525
TAFMIA
TAF
KMIA 200525Z 2006/2106 VRB03KT P6SM FEW030
     FM201600 11010KT P6SM SCT035 BKN120
     FM210000 12005KT P6SM BKN250=



000
FTUS42 KMFL 200525
TAFPBI
TAF
KPBI 200525Z 2006/2106 10004KT P6SM FEW030
     FM201600 12010KT P6SM SCT035 SCT250
     FM210000 13006KT P6SM BKN250=



000
FTUS42 KMFL 200234 AAA
TAFAPF
TAF AMD
KAPF 200234Z 2003/2024 00000KT P6SM SKC
     FM201500 13009KT P6SM SKC
     FM202000 22008KT P6SM FEW035=



000
FTUS42 KMFL 200234 AAA
TAFMIA
TAF AMD
KMIA 200234Z 2003/2024 10003KT P6SM FEW030
     FM201600 13009KT P6SM SCT035 SCT250=



000
FTUS42 KMFL 200234 AAA
TAFFLL
TAF AMD
KFLL 200234Z 2003/2024 10003KT P6SM FEW030
     FM201600 13009KT P6SM SCT035 SCT250=



000
FTUS42 KMFL 200234 AAA
TAFPBI
TAF AMD
KPBI 200234Z 2003/2024 00000KT P6SM FEW030
     FM201600 12009KT P6SM SCT035 SCT250=



000
FTUS42 KMFL 200234 AAA
TAFAPF
TAF AMD
KAPF 200234Z 2003/2024 00000KT P6SM SKC
     FM201500 13009KT P6SM SKC
     FM202000 22008KT P6SM FEW035=



000
FTUS42 KMFL 200234 AAA
TAFMIA
TAF AMD
KMIA 200234Z 2003/2024 10003KT P6SM FEW030
     FM201600 13009KT P6SM SCT035 SCT250=



000
FTUS42 KMFL 200234 AAA
TAFFLL
TAF AMD
KFLL 200234Z 2003/2024 10003KT P6SM FEW030
     FM201600 13009KT P6SM SCT035 SCT250=



000
FTUS42 KMFL 192320
TAFMIA
TAF
KMIA 192320Z 2000/2024 08008KT P6SM SCT045
     FM200200 10003KT P6SM FEW030
     FM201600 13009KT P6SM SCT035 SCT250=



000
FTUS42 KMFL 192320
TAFMIA
TAF
KMIA 192320Z 2000/2024 08008KT P6SM SCT045
     FM200200 10003KT P6SM FEW030
     FM201600 13009KT P6SM SCT035 SCT250=



000
FTUS42 KMFL 192320
TAFFLL
TAF
KFLL 192320Z 2000/2024 08008KT P6SM FEW040
     FM200200 10003KT P6SM FEW030
     FM201600 13009KT P6SM SCT035 SCT250=



000
FTUS42 KMFL 192320
TAFPBI
TAF
KPBI 192320Z 2000/2024 07007KT P6SM FEW035 FEW250
     FM200200 00000KT P6SM FEW030
     FM201600 12009KT P6SM SCT035 SCT250=



000
FTUS42 KMFL 192320
TAFPBI
TAF
KPBI 192320Z 2000/2024 07007KT P6SM FEW035 FEW250
     FM200200 00000KT P6SM FEW030
     FM201600 12009KT P6SM SCT035 SCT250=



000
FTUS42 KMFL 192320
TAFAPF
TAF
KAPF 192320Z 2000/2024 28006KT P6SM SKC
     FM200200 00000KT P6SM SKC
     FM201500 13009KT P6SM SKC
     FM202000 22008KT P6SM FEW035=



000
FTUS42 KMFL 192320
TAFFLL
TAF
KFLL 192320Z 2000/2024 08008KT P6SM FEW040
     FM200200 10003KT P6SM FEW030
     FM201600 13009KT P6SM SCT035 SCT250=



000
FTUS42 KMFL 192320
TAFAPF
TAF
KAPF 192320Z 2000/2024 28006KT P6SM SKC
     FM200200 00000KT P6SM SKC
     FM201500 13009KT P6SM SKC
     FM202000 22008KT P6SM FEW035=



000
FTUS42 KMFL 192320
TAFFLL
TAF
KFLL 192320Z 2000/2024 08008KT P6SM FEW040
     FM200200 10003KT P6SM FEW030
     FM201600 13009KT P6SM SCT035 SCT250=



000
FTUS42 KMFL 192320
TAFMIA
TAF
KMIA 192320Z 2000/2024 08008KT P6SM SCT045
     FM200200 10003KT P6SM FEW030
     FM201600 13009KT P6SM SCT035 SCT250=



000
FTUS42 KMFL 192320
TAFAPF
TAF
KAPF 192320Z 2000/2024 28006KT P6SM SKC
     FM200200 00000KT P6SM SKC
     FM201500 13009KT P6SM SKC
     FM202000 22008KT P6SM FEW035=



000
FTUS42 KMFL 192320
TAFPBI
TAF
KPBI 192320Z 2000/2024 07007KT P6SM FEW035 FEW250
     FM200200 00000KT P6SM FEW030
     FM201600 12009KT P6SM SCT035 SCT250=



000
FTUS42 KMFL 192320
TAFAPF
TAF
KAPF 192320Z 2000/2024 28006KT P6SM SKC
     FM200200 00000KT P6SM SKC
     FM201500 13009KT P6SM SKC
     FM202000 22008KT P6SM FEW035=



000
FTUS42 KMFL 192320
TAFPBI
TAF
KPBI 192320Z 2000/2024 07007KT P6SM FEW035 FEW250
     FM200200 00000KT P6SM FEW030
     FM201600 12009KT P6SM SCT035 SCT250=



000
FTUS42 KMFL 192320
TAFFLL
TAF
KFLL 192320Z 2000/2024 08008KT P6SM FEW040
     FM200200 10003KT P6SM FEW030
     FM201600 13009KT P6SM SCT035 SCT250=



000
FTUS42 KMFL 192320
TAFMIA
TAF
KMIA 192320Z 2000/2024 08008KT P6SM SCT045
     FM200200 10003KT P6SM FEW030
     FM201600 13009KT P6SM SCT035 SCT250=



000
FTUS42 KMFL 192040 AAA
TAFPBI
TAF AMD
KPBI 192040Z 1921/2018 07009KT P6SM SCT050 SCT250
     FM200200 00000KT P6SM FEW030=



000
FTUS42 KMFL 192040 AAA
TAFFLL
TAF AMD
KFLL 192040Z 1921/2018 08008KT P6SM SCT045
     FM200200 10004KT P6SM FEW030=



000
FTUS42 KMFL 192040 AAA
TAFFLL
TAF AMD
KFLL 192040Z 1921/2018 08008KT P6SM SCT045
     FM200200 10004KT P6SM FEW030=



000
FTUS42 KMFL 192040 AAA
TAFMIA
TAF AMD
KMIA 192040Z 1921/2018 10009KT P6SM SCT045
     FM200200 10004KT P6SM FEW030=



000
FTUS42 KMFL 192040 AAA
TAFAPF
TAF AMD
KAPF 192040Z 1921/2018 28009KT P6SM FEW040
     FM200200 00000KT P6SM SKC=



000
FTUS42 KMFL 192040 AAA
TAFAPF
TAF AMD
KAPF 192040Z 1921/2018 28009KT P6SM FEW040
     FM200200 00000KT P6SM SKC=



000
FTUS42 KMFL 192040 AAA
TAFPBI
TAF AMD
KPBI 192040Z 1921/2018 07009KT P6SM SCT050 SCT250
     FM200200 00000KT P6SM FEW030=



000
FTUS42 KMFL 192040 AAA
TAFMIA
TAF AMD
KMIA 192040Z 1921/2018 10009KT P6SM SCT045
     FM200200 10004KT P6SM FEW030=



000
FTUS42 KMFL 191740
TAFFLL
TAF
KFLL 191740Z 1918/2018 10007KT P6SM SCT045
     FM200200 09005KT P6SM FEW030=



000
FTUS42 KMFL 191740
TAFFLL
TAF
KFLL 191740Z 1918/2018 10007KT P6SM SCT045
     FM200200 09005KT P6SM FEW030=



000
FTUS42 KMFL 191740
TAFMIA
TAF
KMIA 191740Z 1918/2018 11007KT P6SM SCT045
     FM200200 09005KT P6SM FEW030=



000
FTUS42 KMFL 191740
TAFAPF
TAF
KAPF 191740Z 1918/2018 05006KT P6SM SCT040
     FM191900 28007KT P6SM SCT040
     FM200200 08003KT P6SM SKC=



000
FTUS42 KMFL 191740
TAFPBI
TAF
KPBI 191740Z 1918/2018 15004KT P6SM SCT045 SCT250
     FM191900 08007KT P6SM SCT050
     FM200200 09003KT P6SM FEW030=



000
FTUS42 KMFL 191740
TAFMIA
TAF
KMIA 191740Z 1918/2018 11007KT P6SM SCT045
     FM200200 09005KT P6SM FEW030=



000
FTUS42 KMFL 191740
TAFPBI
TAF
KPBI 191740Z 1918/2018 15004KT P6SM SCT045 SCT250
     FM191900 08007KT P6SM SCT050
     FM200200 09003KT P6SM FEW030=



000
FTUS42 KMFL 191740
TAFAPF
TAF
KAPF 191740Z 1918/2018 05006KT P6SM SCT040
     FM191900 28007KT P6SM SCT040
     FM200200 08003KT P6SM SKC=



000
FTUS42 KMFL 191513 AAA
TAFMIA
TAF AMD
KMIA 191513Z 1915/2012 33005KT P6SM FEW045 FEW250
     FM191700 09008KT P6SM FEW035
     FM200000 09005KT P6SM FEW030=



000
FTUS42 KMFL 191513 AAA
TAFAPF
TAF AMD
KAPF 191513Z 1915/2012 07004KT P6SM SKC
     FM191800 32008KT P6SM SKC
     FM200000 06005KT P6SM SKC=



000
FTUS42 KMFL 191513 AAA
TAFPBI
TAF AMD
KPBI 191513Z 1915/2012 VRB03KT P6SM FEW040 SCT250
     FM191700 05008KT P6SM FEW035
     FM200000 09005KT P6SM FEW030=



000
FTUS42 KMFL 191513 AAA
TAFFLL
TAF AMD
KFLL 191513Z 1915/2012 33004KT P6SM FEW040
     FM191700 08008KT P6SM FEW035
     FM200000 09005KT P6SM FEW030=



000
FTUS42 KMFL 191513 AAA
TAFAPF
TAF AMD
KAPF 191513Z 1915/2012 07004KT P6SM SKC
     FM191800 32008KT P6SM SKC
     FM200000 06005KT P6SM SKC=



000
FTUS42 KMFL 191513 AAA
TAFFLL
TAF AMD
KFLL 191513Z 1915/2012 33004KT P6SM FEW040
     FM191700 08008KT P6SM FEW035
     FM200000 09005KT P6SM FEW030=



000
FTUS42 KMFL 191513 AAA
TAFMIA
TAF AMD
KMIA 191513Z 1915/2012 33005KT P6SM FEW045 FEW250
     FM191700 09008KT P6SM FEW035
     FM200000 09005KT P6SM FEW030=



000
FTUS42 KMFL 191513 AAA
TAFPBI
TAF AMD
KPBI 191513Z 1915/2012 VRB03KT P6SM FEW040 SCT250
     FM191700 05008KT P6SM FEW035
     FM200000 09005KT P6SM FEW030=



000
FTUS42 KMFL 191124
TAFPBI
TAF
KPBI 191124Z 1912/2012 34007KT P6SM FEW040
     FM191700 05008KT P6SM FEW035
     FM200000 09005KT P6SM FEW030=



000
FTUS42 KMFL 191124
TAFFLL
TAF
KFLL 191124Z 1912/2012 31003KT P6SM FEW045
     FM191700 08008KT P6SM FEW035
     FM200000 09005KT P6SM FEW030=



000
FTUS42 KMFL 191124
TAFMIA
TAF
KMIA 191124Z 1912/2012 30003KT P6SM FEW045
     FM191700 09008KT P6SM FEW035
     FM200000 09005KT P6SM FEW030=



000
FTUS42 KMFL 191124
TAFAPF
TAF
KAPF 191124Z 1912/2012 05005KT P6SM SKC
     FM191800 32008KT P6SM SKC
     FM200000 06005KT P6SM SKC=



000
FTUS42 KMFL 191124
TAFMIA
TAF
KMIA 191124Z 1912/2012 30003KT P6SM FEW045
     FM191700 09008KT P6SM FEW035
     FM200000 09005KT P6SM FEW030=



000
FTUS42 KMFL 191124
TAFFLL
TAF
KFLL 191124Z 1912/2012 31003KT P6SM FEW045
     FM191700 08008KT P6SM FEW035
     FM200000 09005KT P6SM FEW030=



000
FTUS42 KMFL 191124
TAFPBI
TAF
KPBI 191124Z 1912/2012 34007KT P6SM FEW040
     FM191700 05008KT P6SM FEW035
     FM200000 09005KT P6SM FEW030=



000
FTUS42 KMFL 191124
TAFAPF
TAF
KAPF 191124Z 1912/2012 05005KT P6SM SKC
     FM191800 32008KT P6SM SKC
     FM200000 06005KT P6SM SKC=



000
FTUS42 KMFL 190912 AAA
TAFAPF
TAF AMD
KAPF 190912Z 1909/2006 03004KT P6SM SKC
     FM191800 32008KT P6SM SKC
     FM200000 06005KT P6SM SKC=



000
FTUS42 KMFL 190912 AAA
TAFAPF
TAF AMD
KAPF 190912Z 1909/2006 03004KT P6SM SKC
     FM191800 32008KT P6SM SKC
     FM200000 06005KT P6SM SKC=



000
FTUS42 KMFL 190911 AAA
TAFPBI
TAF AMD
KPBI 190911Z 1909/2006 31005KT P6SM FEW040
     FM191700 05008KT P6SM FEW035
     FM200000 09005KT P6SM FEW030=



000
FTUS42 KMFL 190911 AAA
TAFPBI
TAF AMD
KPBI 190911Z 1909/2006 31005KT P6SM FEW040
     FM191700 05008KT P6SM FEW035
     FM200000 09005KT P6SM FEW030=



000
FTUS42 KMFL 190910 AAA
TAFFLL
TAF AMD
KFLL 190910Z 1909/2006 29005KT P6SM FEW040
     FM191700 08008KT P6SM FEW035
     FM200000 09005KT P6SM FEW030=



000
FTUS42 KMFL 190910 AAA
TAFFLL
TAF AMD
KFLL 190910Z 1909/2006 29005KT P6SM FEW040
     FM191700 08008KT P6SM FEW035
     FM200000 09005KT P6SM FEW030=



000
FTUS42 KMFL 190909 AAA
TAFMIA
TAF AMD
KMIA 190909Z 1909/2006 30005KT P6SM FEW040
     FM191700 09008KT P6SM FEW035
     FM200000 09005KT P6SM FEW030=



000
FTUS42 KMFL 190520
TAFPBI
TAF
KPBI 190520Z 1906/2006 23003KT P6SM SKC
     FM191300 33005KT P6SM SKC
     FM191700 05008KT P6SM FEW035
     FM200000 09005KT P6SM FEW030=



000
FTUS42 KMFL 190520
TAFAPF
TAF
KAPF 190520Z 1906/2006 03004KT P6SM SKC
     FM191800 32008KT P6SM SKC
     FM200000 06005KT P6SM SKC=



000
FTUS42 KMFL 190520
TAFMIA
TAF
KMIA 190520Z 1906/2006 25003KT P6SM SKC
     FM191300 30005KT P6SM SKC
     FM191700 09008KT P6SM FEW035
     FM200000 09005KT P6SM FEW030=



000
FTUS42 KMFL 190520
TAFAPF
TAF
KAPF 190520Z 1906/2006 03004KT P6SM SKC
     FM191800 32008KT P6SM SKC
     FM200000 06005KT P6SM SKC=



000
FTUS42 KMFL 190520
TAFFLL
TAF
KFLL 190520Z 1906/2006 25003KT P6SM SKC
     FM191300 30005KT P6SM SKC
     FM191700 08008KT P6SM FEW035
     FM200000 09005KT P6SM FEW030=



000
FTUS42 KMFL 190520
TAFPBI
TAF
KPBI 190520Z 1906/2006 23003KT P6SM SKC
     FM191300 33005KT P6SM SKC
     FM191700 05008KT P6SM FEW035
     FM200000 09005KT P6SM FEW030=



000
FTUS42 KMFL 190520
TAFMIA
TAF
KMIA 190520Z 1906/2006 25003KT P6SM SKC
     FM191300 30005KT P6SM SKC
     FM191700 09008KT P6SM FEW035
     FM200000 09005KT P6SM FEW030=



000
FTUS42 KMFL 190520
TAFFLL
TAF
KFLL 190520Z 1906/2006 25003KT P6SM SKC
     FM191300 30005KT P6SM SKC
     FM191700 08008KT P6SM FEW035
     FM200000 09005KT P6SM FEW030=



000
FTUS42 KMFL 190304 AAA
TAFAPF
TAF AMD
KAPF 190304Z 1903/1924 02004KT P6SM SKC
     FM191800 32005KT P6SM SKC=



000
FTUS42 KMFL 190304 AAA
TAFAPF
TAF AMD
KAPF 190304Z 1903/1924 02004KT P6SM SKC
     FM191800 32005KT P6SM SKC=



000
FTUS42 KMFL 190303 AAA
TAFPBI
TAF AMD
KPBI 190303Z 1903/1924 23003KT P6SM FEW040
     FM191800 06007KT P6SM SKC=



000
FTUS42 KMFL 190303 AAA
TAFPBI
TAF AMD
KPBI 190303Z 1903/1924 23003KT P6SM FEW040
     FM191800 06007KT P6SM SKC=



000
FTUS42 KMFL 190302 AAA
TAFFLL
TAF AMD
KFLL 190302Z 1903/1924 24003KT P6SM FEW030
     FM191800 07007KT P6SM SKC=



000
FTUS42 KMFL 190302 AAA
TAFFLL
TAF AMD
KFLL 190302Z 1903/1924 24003KT P6SM FEW030
     FM191800 07007KT P6SM SKC=



000
FTUS42 KMFL 190301 AAA
TAFMIA
TAF AMD
KMIA 190301Z 1903/1924 24003KT P6SM FEW030
     FM191800 08007KT P6SM SKC=



    US Dept of Commerce
    National Oceanic and Atmospheric Administration
    National Weather Service
    1325 East West Highway
    Silver Spring, MD 20910
    Page Author: NWS Internet Services Team
Disclaimer
Information Quality
Credits
Glossary
Privacy Policy
Freedom of Information Act (FOIA)
About Us
Career Opportunities